sensor_id;sensor_type;location;lat;lon;timestamp;P1;durP1;ratioP1;P2;durP2;ratioP2
18176;SDS011;9213;50.858;3.964;2023-01-13T00:00:03;27.97;;;4.53;;
18176;SDS011;9213;50.858;3.964;2023-01-13T00:02:33;26.10;;;5.20;;
18176;SDS011;9213;50.858;3.964;2023-01-13T00:05:00;18.10;;;3.20;;
18176;SDS011;9213;50.858;3.964;2023-01-13T00:07:27;19.77;;;3.23;;
18176;SDS011;9213;50.858;3.964;2023-01-13T00:09:53;17.40;;;3.20;;
18176;SDS011;9213;50.858;3.964;2023-01-13T00:12:22;22.67;;;3.90;;
18176;SDS011;9213;50.858;3.964;2023-01-13T00:14:49;20.50;;;3.70;;
18176;SDS011;9213;50.858;3.964;2023-01-13T00:17:16;18.93;;;3.40;;
18176;SDS011;9213;50.858;3.964;2023-01-13T00:19:43;17.07;;;3.73;;
18176;SDS011;9213;50.858;3.964;2023-01-13T00:22:10;17.43;;;3.77;;
18176;SDS011;9213;50.858;3.964;2023-01-13T00:24:37;19.40;;;3.50;;
18176;SDS011;9213;50.858;3.964;2023-01-13T00:27:04;28.47;;;3.87;;
18176;SDS011;9213;50.858;3.964;2023-01-13T00:29:32;18.03;;;3.33;;
18176;SDS011;9213;50.858;3.964;2023-01-13T00:31:59;20.07;;;3.10;;
18176;SDS011;9213;50.858;3.964;2023-01-13T00:34:26;23.53;;;3.23;;
18176;SDS011;9213;50.858;3.964;2023-01-13T00:36:53;15.30;;;3.20;;
18176;SDS011;9213;50.858;3.964;2023-01-13T00:39:20;9.97;;;3.07;;
18176;SDS011;9213;50.858;3.964;2023-01-13T00:41:47;15.07;;;2.80;;
18176;SDS011;9213;50.858;3.964;2023-01-13T00:44:33;14.53;;;2.70;;
18176;SDS011;9213;50.858;3.964;2023-01-13T00:47:00;22.07;;;3.20;;
18176;SDS011;9213;50.858;3.964;2023-01-13T00:49:27;20.30;;;3.23;;
18176;SDS011;9213;50.858;3.964;2023-01-13T00:51:54;16.00;;;2.67;;
18176;SDS011;9213;50.858;3.964;2023-01-13T00:54:20;16.50;;;2.57;;
18176;SDS011;9213;50.858;3.964;2023-01-13T00:56:47;19.50;;;3.33;;
18176;SDS011;9213;50.858;3.964;2023-01-13T00:59:14;14.23;;;2.47;;
18176;SDS011;9213;50.858;3.964;2023-01-13T01:01:42;13.33;;;2.30;;
18176;SDS011;9213;50.858;3.964;2023-01-13T01:04:09;18.47;;;2.93;;
18176;SDS011;9213;50.858;3.964;2023-01-13T01:06:36;16.23;;;2.90;;
18176;SDS011;9213;50.858;3.964;2023-01-13T01:09:03;13.93;;;3.23;;
18176;SDS011;9213;50.858;3.964;2023-01-13T01:11:31;17.43;;;2.60;;
18176;SDS011;9213;50.858;3.964;2023-01-13T01:13:59;18.00;;;3.17;;
18176;SDS011;9213;50.858;3.964;2023-01-13T01:16:29;15.23;;;2.63;;
18176;SDS011;9213;50.858;3.964;2023-01-13T01:18:58;11.83;;;2.57;;
18176;SDS011;9213;50.858;3.964;2023-01-13T01:21:26;14.87;;;3.03;;
18176;SDS011;9213;50.858;3.964;2023-01-13T01:23:54;13.33;;;2.67;;
18176;SDS011;9213;50.858;3.964;2023-01-13T01:26:24;14.80;;;2.70;;
18176;SDS011;9213;50.858;3.964;2023-01-13T01:28:52;10.33;;;2.47;;
18176;SDS011;9213;50.858;3.964;2023-01-13T01:31:20;13.83;;;2.97;;
18176;SDS011;9213;50.858;3.964;2023-01-13T01:33:48;14.13;;;2.83;;
18176;SDS011;9213;50.858;3.964;2023-01-13T01:36:18;15.03;;;2.60;;
18176;SDS011;9213;50.858;3.964;2023-01-13T01:38:46;11.53;;;2.47;;
18176;SDS011;9213;50.858;3.964;2023-01-13T01:41:14;11.67;;;2.33;;
18176;SDS011;9213;50.858;3.964;2023-01-13T01:43:44;16.17;;;3.10;;
18176;SDS011;9213;50.858;3.964;2023-01-13T01:46:31;10.80;;;3.40;;
18176;SDS011;9213;50.858;3.964;2023-01-13T01:49:10;11.40;;;2.27;;
18176;SDS011;9213;50.858;3.964;2023-01-13T01:51:44;10.03;;;2.23;;
18176;SDS011;9213;50.858;3.964;2023-01-13T01:54:16;15.03;;;2.97;;
18176;SDS011;9213;50.858;3.964;2023-01-13T01:56:48;18.40;;;3.10;;
18176;SDS011;9213;50.858;3.964;2023-01-13T01:59:15;10.33;;;2.57;;
18176;SDS011;9213;50.858;3.964;2023-01-13T02:01:43;13.07;;;2.43;;
18176;SDS011;9213;50.858;3.964;2023-01-13T02:04:12;13.47;;;3.07;;
18176;SDS011;9213;50.858;3.964;2023-01-13T02:06:42;10.83;;;2.77;;
18176;SDS011;9213;50.858;3.964;2023-01-13T02:09:11;13.73;;;2.33;;
18176;SDS011;9213;50.858;3.964;2023-01-13T02:11:38;18.90;;;2.50;;
18176;SDS011;9213;50.858;3.964;2023-01-13T02:14:24;16.93;;;2.30;;
18176;SDS011;9213;50.858;3.964;2023-01-13T02:16:54;9.93;;;2.57;;
18176;SDS011;9213;50.858;3.964;2023-01-13T02:23:07;9.03;;;2.10;;
18176;SDS011;9213;50.858;3.964;2023-01-13T02:26:33;10.07;;;1.80;;
18176;SDS011;9213;50.858;3.964;2023-01-13T02:29:35;13.27;;;2.50;;
18176;SDS011;9213;50.858;3.964;2023-01-13T02:32:29;15.57;;;2.10;;
18176;SDS011;9213;50.858;3.964;2023-01-13T02:35:02;13.43;;;3.53;;
18176;SDS011;9213;50.858;3.964;2023-01-13T02:37:34;11.80;;;2.50;;
18176;SDS011;9213;50.858;3.964;2023-01-13T02:40:05;14.93;;;2.53;;
18176;SDS011;9213;50.858;3.964;2023-01-13T02:42:37;12.57;;;2.40;;
18176;SDS011;9213;50.858;3.964;2023-01-13T02:45:31;15.73;;;2.90;;
18176;SDS011;9213;50.858;3.964;2023-01-13T02:48:03;11.87;;;2.27;;
18176;SDS011;9213;50.858;3.964;2023-01-13T02:50:34;12.77;;;2.50;;
18176;SDS011;9213;50.858;3.964;2023-01-13T02:53:04;9.23;;;2.43;;
18176;SDS011;9213;50.858;3.964;2023-01-13T02:55:38;14.20;;;2.37;;
18176;SDS011;9213;50.858;3.964;2023-01-13T02:58:10;11.33;;;3.30;;
18176;SDS011;9213;50.858;3.964;2023-01-13T03:00:42;9.87;;;2.27;;
18176;SDS011;9213;50.858;3.964;2023-01-13T03:03:10;13.60;;;2.40;;
18176;SDS011;9213;50.858;3.964;2023-01-13T03:05:37;9.53;;;2.27;;
18176;SDS011;9213;50.858;3.964;2023-01-13T03:08:11;11.60;;;2.50;;
18176;SDS011;9213;50.858;3.964;2023-01-13T03:11:00;11.20;;;2.27;;
18176;SDS011;9213;50.858;3.964;2023-01-13T03:13:36;11.33;;;2.50;;
18176;SDS011;9213;50.858;3.964;2023-01-13T03:16:30;7.33;;;2.20;;
18176;SDS011;9213;50.858;3.964;2023-01-13T03:19:16;8.87;;;2.23;;
18176;SDS011;9213;50.858;3.964;2023-01-13T03:21:56;14.03;;;2.87;;
18176;SDS011;9213;50.858;3.964;2023-01-13T03:24:33;7.83;;;1.73;;
18176;SDS011;9213;50.858;3.964;2023-01-13T03:27:03;10.67;;;2.43;;
18176;SDS011;9213;50.858;3.964;2023-01-13T03:29:35;13.30;;;2.53;;
18176;SDS011;9213;50.858;3.964;2023-01-13T03:32:09;15.30;;;3.10;;
18176;SDS011;9213;50.858;3.964;2023-01-13T03:34:40;14.57;;;2.30;;
18176;SDS011;9213;50.858;3.964;2023-01-13T03:37:12;9.23;;;1.80;;
18176;SDS011;9213;50.858;3.964;2023-01-13T03:39:42;15.47;;;2.03;;
18176;SDS011;9213;50.858;3.964;2023-01-13T03:42:16;7.50;;;1.80;;
18176;SDS011;9213;50.858;3.964;2023-01-13T03:44:47;7.57;;;1.83;;
18176;SDS011;9213;50.858;3.964;2023-01-13T03:47:21;7.93;;;1.70;;
18176;SDS011;9213;50.858;3.964;2023-01-13T03:49:53;8.13;;;1.70;;
18176;SDS011;9213;50.858;3.964;2023-01-13T03:52:25;7.87;;;2.40;;
18176;SDS011;9213;50.858;3.964;2023-01-13T03:54:57;13.30;;;2.13;;
18176;SDS011;9213;50.858;3.964;2023-01-13T03:57:30;9.00;;;1.80;;
18176;SDS011;9213;50.858;3.964;2023-01-13T04:00:00;5.90;;;2.00;;
18176;SDS011;9213;50.858;3.964;2023-01-13T04:02:37;8.30;;;1.80;;
18176;SDS011;9213;50.858;3.964;2023-01-13T04:05:10;8.87;;;2.07;;
18176;SDS011;9213;50.858;3.964;2023-01-13T04:07:39;8.67;;;1.87;;
18176;SDS011;9213;50.858;3.964;2023-01-13T04:10:15;9.50;;;1.80;;
18176;SDS011;9213;50.858;3.964;2023-01-13T04:12:46;12.63;;;2.30;;
18176;SDS011;9213;50.858;3.964;2023-01-13T04:15:26;10.57;;;2.27;;
18176;SDS011;9213;50.858;3.964;2023-01-13T04:18:11;14.77;;;2.53;;
18176;SDS011;9213;50.858;3.964;2023-01-13T04:20:42;11.17;;;2.10;;
18176;SDS011;9213;50.858;3.964;2023-01-13T04:23:11;11.80;;;1.90;;
18176;SDS011;9213;50.858;3.964;2023-01-13T04:25:38;14.60;;;2.47;;
18176;SDS011;9213;50.858;3.964;2023-01-13T04:28:06;12.93;;;2.20;;
18176;SDS011;9213;50.858;3.964;2023-01-13T04:30:33;14.47;;;3.03;;
18176;SDS011;9213;50.858;3.964;2023-01-13T04:33:00;7.80;;;1.73;;
18176;SDS011;9213;50.858;3.964;2023-01-13T04:35:30;13.37;;;2.33;;
18176;SDS011;9213;50.858;3.964;2023-01-13T04:37:59;13.57;;;2.40;;
18176;SDS011;9213;50.858;3.964;2023-01-13T04:40:26;16.50;;;2.43;;
18176;SDS011;9213;50.858;3.964;2023-01-13T04:42:53;11.47;;;2.33;;
18176;SDS011;9213;50.858;3.964;2023-01-13T04:45:20;9.07;;;2.10;;
18176;SDS011;9213;50.858;3.964;2023-01-13T04:47:47;8.83;;;1.70;;
18176;SDS011;9213;50.858;3.964;2023-01-13T04:50:14;12.23;;;2.10;;
18176;SDS011;9213;50.858;3.964;2023-01-13T04:52:45;10.97;;;1.87;;
18176;SDS011;9213;50.858;3.964;2023-01-13T04:55:13;11.80;;;1.77;;
18176;SDS011;9213;50.858;3.964;2023-01-13T04:57:40;7.83;;;2.20;;
18176;SDS011;9213;50.858;3.964;2023-01-13T05:00:08;12.87;;;2.20;;
18176;SDS011;9213;50.858;3.964;2023-01-13T05:02:37;7.20;;;1.67;;
18176;SDS011;9213;50.858;3.964;2023-01-13T05:05:04;10.40;;;2.33;;
18176;SDS011;9213;50.858;3.964;2023-01-13T05:07:32;12.93;;;3.03;;
18176;SDS011;9213;50.858;3.964;2023-01-13T05:10:00;14.73;;;2.00;;
18176;SDS011;9213;50.858;3.964;2023-01-13T05:12:27;14.83;;;3.23;;
18176;SDS011;9213;50.858;3.964;2023-01-13T05:15:12;12.93;;;2.63;;
18176;SDS011;9213;50.858;3.964;2023-01-13T05:17:57;10.23;;;2.07;;
18176;SDS011;9213;50.858;3.964;2023-01-13T05:20:25;12.17;;;2.53;;
18176;SDS011;9213;50.858;3.964;2023-01-13T05:22:52;15.37;;;2.50;;
18176;SDS011;9213;50.858;3.964;2023-01-13T05:25:38;12.33;;;2.00;;
18176;SDS011;9213;50.858;3.964;2023-01-13T05:28:07;11.70;;;2.23;;
18176;SDS011;9213;50.858;3.964;2023-01-13T05:30:35;13.40;;;2.30;;
18176;SDS011;9213;50.858;3.964;2023-01-13T05:33:06;13.40;;;2.60;;
18176;SDS011;9213;50.858;3.964;2023-01-13T05:35:33;19.57;;;3.33;;
18176;SDS011;9213;50.858;3.964;2023-01-13T05:38:02;14.20;;;2.43;;
18176;SDS011;9213;50.858;3.964;2023-01-13T05:40:29;13.37;;;2.10;;
18176;SDS011;9213;50.858;3.964;2023-01-13T05:43:15;13.97;;;2.63;;
18176;SDS011;9213;50.858;3.964;2023-01-13T05:45:49;12.67;;;2.37;;
18176;SDS011;9213;50.858;3.964;2023-01-13T05:48:19;16.40;;;3.03;;
18176;SDS011;9213;50.858;3.964;2023-01-13T05:50:47;13.77;;;2.50;;
18176;SDS011;9213;50.858;3.964;2023-01-13T05:53:14;16.37;;;2.47;;
18176;SDS011;9213;50.858;3.964;2023-01-13T05:55:42;17.40;;;4.50;;
18176;SDS011;9213;50.858;3.964;2023-01-13T05:58:10;12.57;;;2.03;;
18176;SDS011;9213;50.858;3.964;2023-01-13T06:00:39;16.87;;;2.63;;
18176;SDS011;9213;50.858;3.964;2023-01-13T06:03:06;14.87;;;2.63;;
18176;SDS011;9213;50.858;3.964;2023-01-13T06:05:34;14.33;;;2.37;;
18176;SDS011;9213;50.858;3.964;2023-01-13T06:08:02;11.93;;;2.43;;
18176;SDS011;9213;50.858;3.964;2023-01-13T06:10:31;10.67;;;2.50;;
18176;SDS011;9213;50.858;3.964;2023-01-13T06:12:58;17.20;;;3.13;;
18176;SDS011;9213;50.858;3.964;2023-01-13T06:15:25;16.40;;;2.60;;
18176;SDS011;9213;50.858;3.964;2023-01-13T06:17:53;14.33;;;2.50;;
18176;SDS011;9213;50.858;3.964;2023-01-13T06:20:21;16.70;;;3.17;;
18176;SDS011;9213;50.858;3.964;2023-01-13T06:22:49;21.67;;;3.20;;
18176;SDS011;9213;50.858;3.964;2023-01-13T06:25:20;16.47;;;2.80;;
18176;SDS011;9213;50.858;3.964;2023-01-13T06:27:52;21.63;;;2.93;;
18176;SDS011;9213;50.858;3.964;2023-01-13T06:30:20;18.63;;;3.17;;
18176;SDS011;9213;50.858;3.964;2023-01-13T06:32:48;17.70;;;3.57;;
18176;SDS011;9213;50.858;3.964;2023-01-13T06:35:20;20.27;;;3.07;;
18176;SDS011;9213;50.858;3.964;2023-01-13T06:37:50;22.30;;;3.23;;
18176;SDS011;9213;50.858;3.964;2023-01-13T06:40:19;19.40;;;3.00;;
18176;SDS011;9213;50.858;3.964;2023-01-13T06:42:46;19.43;;;3.10;;
18176;SDS011;9213;50.858;3.964;2023-01-13T06:45:31;17.67;;;3.30;;
18176;SDS011;9213;50.858;3.964;2023-01-13T06:48:00;17.57;;;3.33;;
18176;SDS011;9213;50.858;3.964;2023-01-13T06:50:28;19.80;;;3.03;;
18176;SDS011;9213;50.858;3.964;2023-01-13T06:52:55;24.07;;;3.93;;
18176;SDS011;9213;50.858;3.964;2023-01-13T06:55:22;34.57;;;3.77;;
18176;SDS011;9213;50.858;3.964;2023-01-13T06:57:50;18.00;;;3.17;;
18176;SDS011;9213;50.858;3.964;2023-01-13T07:00:18;24.90;;;3.50;;
18176;SDS011;9213;50.858;3.964;2023-01-13T07:02:46;13.93;;;3.20;;
18176;SDS011;9213;50.858;3.964;2023-01-13T07:05:13;18.00;;;3.53;;
18176;SDS011;9213;50.858;3.964;2023-01-13T07:07:42;20.80;;;3.87;;
18176;SDS011;9213;50.858;3.964;2023-01-13T07:10:10;18.40;;;3.20;;
18176;SDS011;9213;50.858;3.964;2023-01-13T07:12:46;28.13;;;3.93;;
18176;SDS011;9213;50.858;3.964;2023-01-13T07:15:31;15.23;;;3.17;;
18176;SDS011;9213;50.858;3.964;2023-01-13T07:17:58;15.77;;;3.40;;
18176;SDS011;9213;50.858;3.964;2023-01-13T07:20:26;20.93;;;4.37;;
18176;SDS011;9213;50.858;3.964;2023-01-13T07:22:54;25.40;;;3.90;;
18176;SDS011;9213;50.858;3.964;2023-01-13T07:25:21;15.77;;;2.73;;
18176;SDS011;9213;50.858;3.964;2023-01-13T07:27:49;27.90;;;3.53;;
18176;SDS011;9213;50.858;3.964;2023-01-13T07:30:16;22.77;;;4.03;;
18176;SDS011;9213;50.858;3.964;2023-01-13T07:32:43;19.80;;;3.93;;
18176;SDS011;9213;50.858;3.964;2023-01-13T07:35:10;18.20;;;3.50;;
18176;SDS011;9213;50.858;3.964;2023-01-13T07:37:37;21.50;;;3.63;;
18176;SDS011;9213;50.858;3.964;2023-01-13T07:40:06;22.50;;;3.33;;
18176;SDS011;9213;50.858;3.964;2023-01-13T07:42:36;21.40;;;3.47;;
18176;SDS011;9213;50.858;3.964;2023-01-13T07:45:21;17.07;;;3.33;;
18176;SDS011;9213;50.858;3.964;2023-01-13T07:47:50;29.40;;;3.73;;
18176;SDS011;9213;50.858;3.964;2023-01-13T07:50:18;22.17;;;3.80;;
18176;SDS011;9213;50.858;3.964;2023-01-13T07:52:47;25.20;;;4.03;;
18176;SDS011;9213;50.858;3.964;2023-01-13T07:55:16;21.33;;;3.27;;
18176;SDS011;9213;50.858;3.964;2023-01-13T07:57:43;22.03;;;3.73;;
18176;SDS011;9213;50.858;3.964;2023-01-13T08:00:10;22.63;;;3.83;;
18176;SDS011;9213;50.858;3.964;2023-01-13T08:02:38;23.93;;;4.30;;
18176;SDS011;9213;50.858;3.964;2023-01-13T08:05:05;17.93;;;3.63;;
18176;SDS011;9213;50.858;3.964;2023-01-13T08:07:33;14.13;;;3.80;;
18176;SDS011;9213;50.858;3.964;2023-01-13T08:10:00;18.20;;;3.70;;
18176;SDS011;9213;50.858;3.964;2023-01-13T08:12:29;19.17;;;4.03;;
18176;SDS011;9213;50.858;3.964;2023-01-13T08:15:13;16.77;;;3.60;;
18176;SDS011;9213;50.858;3.964;2023-01-13T08:17:40;30.80;;;5.67;;
18176;SDS011;9213;50.858;3.964;2023-01-13T08:20:07;24.60;;;4.00;;
18176;SDS011;9213;50.858;3.964;2023-01-13T08:22:35;25.60;;;4.43;;
18176;SDS011;9213;50.858;3.964;2023-01-13T08:25:02;20.57;;;3.53;;
18176;SDS011;9213;50.858;3.964;2023-01-13T08:27:31;19.90;;;3.60;;
18176;SDS011;9213;50.858;3.964;2023-01-13T08:29:58;18.83;;;4.67;;
18176;SDS011;9213;50.858;3.964;2023-01-13T08:32:25;19.33;;;3.80;;
18176;SDS011;9213;50.858;3.964;2023-01-13T08:34:52;30.70;;;5.73;;
18176;SDS011;9213;50.858;3.964;2023-01-13T08:37:19;21.40;;;3.90;;
18176;SDS011;9213;50.858;3.964;2023-01-13T08:39:46;23.27;;;4.67;;
18176;SDS011;9213;50.858;3.964;2023-01-13T08:42:13;16.10;;;3.43;;
18176;SDS011;9213;50.858;3.964;2023-01-13T08:44:41;22.40;;;4.57;;
18176;SDS011;9213;50.858;3.964;2023-01-13T08:47:08;22.67;;;3.53;;
18176;SDS011;9213;50.858;3.964;2023-01-13T08:49:35;27.10;;;4.27;;
18176;SDS011;9213;50.858;3.964;2023-01-13T08:52:02;28.20;;;4.97;;
18176;SDS011;9213;50.858;3.964;2023-01-13T08:54:29;22.13;;;5.27;;
18176;SDS011;9213;50.858;3.964;2023-01-13T08:56:56;16.73;;;4.23;;
18176;SDS011;9213;50.858;3.964;2023-01-13T08:59:23;21.83;;;5.57;;
18176;SDS011;9213;50.858;3.964;2023-01-13T09:01:51;23.43;;;3.87;;
18176;SDS011;9213;50.858;3.964;2023-01-13T09:04:20;14.47;;;3.40;;
18176;SDS011;9213;50.858;3.964;2023-01-13T09:06:48;16.40;;;3.87;;
18176;SDS011;9213;50.858;3.964;2023-01-13T09:09:16;19.37;;;4.10;;
18176;SDS011;9213;50.858;3.964;2023-01-13T09:11:44;17.70;;;3.57;;
18176;SDS011;9213;50.858;3.964;2023-01-13T09:14:31;25.57;;;3.77;;
18176;SDS011;9213;50.858;3.964;2023-01-13T09:17:01;24.30;;;4.23;;
18176;SDS011;9213;50.858;3.964;2023-01-13T09:19:28;19.10;;;3.50;;
18176;SDS011;9213;50.858;3.964;2023-01-13T09:21:55;17.00;;;3.20;;
18176;SDS011;9213;50.858;3.964;2023-01-13T09:24:23;22.30;;;4.40;;
18176;SDS011;9213;50.858;3.964;2023-01-13T09:26:50;26.00;;;5.80;;
18176;SDS011;9213;50.858;3.964;2023-01-13T09:29:17;24.87;;;4.37;;
18176;SDS011;9213;50.858;3.964;2023-01-13T09:31:45;18.47;;;4.47;;
18176;SDS011;9213;50.858;3.964;2023-01-13T09:34:14;28.97;;;4.13;;
18176;SDS011;9213;50.858;3.964;2023-01-13T09:37:00;24.47;;;4.37;;
18176;SDS011;9213;50.858;3.964;2023-01-13T09:39:28;21.83;;;3.57;;
18176;SDS011;9213;50.858;3.964;2023-01-13T09:41:56;17.67;;;3.50;;
18176;SDS011;9213;50.858;3.964;2023-01-13T09:44:46;16.87;;;3.37;;
18176;SDS011;9213;50.858;3.964;2023-01-13T09:47:18;17.07;;;4.03;;
18176;SDS011;9213;50.858;3.964;2023-01-13T09:49:51;20.53;;;5.33;;
18176;SDS011;9213;50.858;3.964;2023-01-13T09:52:23;24.20;;;4.57;;
18176;SDS011;9213;50.858;3.964;2023-01-13T09:54:53;25.93;;;3.73;;
18176;SDS011;9213;50.858;3.964;2023-01-13T09:57:26;19.77;;;3.90;;
18176;SDS011;9213;50.858;3.964;2023-01-13T09:59:56;25.97;;;4.17;;
18176;SDS011;9213;50.858;3.964;2023-01-13T10:02:26;21.93;;;4.40;;
18176;SDS011;9213;50.858;3.964;2023-01-13T10:05:09;20.17;;;3.77;;
18176;SDS011;9213;50.858;3.964;2023-01-13T10:07:41;19.53;;;4.20;;
18176;SDS011;9213;50.858;3.964;2023-01-13T10:10:14;19.53;;;3.80;;
18176;SDS011;9213;50.858;3.964;2023-01-13T10:12:45;26.10;;;4.10;;
18176;SDS011;9213;50.858;3.964;2023-01-13T10:15:38;22.50;;;3.80;;
18176;SDS011;9213;50.858;3.964;2023-01-13T10:18:12;23.97;;;4.17;;
18176;SDS011;9213;50.858;3.964;2023-01-13T10:20:54;21.73;;;3.80;;
18176;SDS011;9213;50.858;3.964;2023-01-13T10:23:36;20.33;;;3.90;;
18176;SDS011;9213;50.858;3.964;2023-01-13T10:26:16;16.40;;;3.17;;
18176;SDS011;9213;50.858;3.964;2023-01-13T10:29:15;18.20;;;3.50;;
18176;SDS011;9213;50.858;3.964;2023-01-13T10:31:45;13.33;;;3.10;;
18176;SDS011;9213;50.858;3.964;2023-01-13T10:34:12;17.10;;;3.47;;
18176;SDS011;9213;50.858;3.964;2023-01-13T10:36:45;19.20;;;3.60;;
18176;SDS011;9213;50.858;3.964;2023-01-13T10:39:22;16.47;;;3.43;;
18176;SDS011;9213;50.858;3.964;2023-01-13T10:41:59;23.97;;;4.00;;
18176;SDS011;9213;50.858;3.964;2023-01-13T10:44:26;15.33;;;3.53;;
18176;SDS011;9213;50.858;3.964;2023-01-13T10:46:54;19.70;;;3.30;;
18176;SDS011;9213;50.858;3.964;2023-01-13T10:49:27;17.87;;;3.63;;
18176;SDS011;9213;50.858;3.964;2023-01-13T10:51:58;17.67;;;3.60;;
18176;SDS011;9213;50.858;3.964;2023-01-13T10:54:26;20.10;;;3.63;;
18176;SDS011;9213;50.858;3.964;2023-01-13T10:57:12;22.17;;;4.67;;
18176;SDS011;9213;50.858;3.964;2023-01-13T10:59:40;18.90;;;3.83;;
18176;SDS011;9213;50.858;3.964;2023-01-13T11:02:18;18.67;;;4.53;;
18176;SDS011;9213;50.858;3.964;2023-01-13T11:04:59;23.10;;;3.63;;
18176;SDS011;9213;50.858;3.964;2023-01-13T11:07:36;18.90;;;3.53;;
18176;SDS011;9213;50.858;3.964;2023-01-13T11:10:09;21.67;;;3.70;;
18176;SDS011;9213;50.858;3.964;2023-01-13T11:12:45;17.40;;;3.10;;
18176;SDS011;9213;50.858;3.964;2023-01-13T11:15:19;19.60;;;3.90;;
18176;SDS011;9213;50.858;3.964;2023-01-13T11:17:50;23.73;;;3.87;;
18176;SDS011;9213;50.858;3.964;2023-01-13T11:20:26;16.10;;;4.93;;
18176;SDS011;9213;50.858;3.964;2023-01-13T11:23:00;19.33;;;3.80;;
18176;SDS011;9213;50.858;3.964;2023-01-13T11:25:33;23.10;;;3.27;;
18176;SDS011;9213;50.858;3.964;2023-01-13T11:28:13;18.00;;;3.57;;
18176;SDS011;9213;50.858;3.964;2023-01-13T11:30:48;22.80;;;4.17;;
18176;SDS011;9213;50.858;3.964;2023-01-13T11:33:25;14.07;;;3.53;;
18176;SDS011;9213;50.858;3.964;2023-01-13T11:36:01;20.30;;;3.80;;
18176;SDS011;9213;50.858;3.964;2023-01-13T11:38:36;19.07;;;3.53;;
18176;SDS011;9213;50.858;3.964;2023-01-13T11:41:09;23.63;;;3.30;;
18176;SDS011;9213;50.858;3.964;2023-01-13T11:43:45;13.53;;;3.27;;
18176;SDS011;9213;50.858;3.964;2023-01-13T11:46:16;15.00;;;2.97;;
18176;SDS011;9213;50.858;3.964;2023-01-13T11:48:44;18.00;;;3.60;;
18176;SDS011;9213;50.858;3.964;2023-01-13T11:51:15;20.70;;;3.60;;
18176;SDS011;9213;50.858;3.964;2023-01-13T11:53:57;15.83;;;3.20;;
18176;SDS011;9213;50.858;3.964;2023-01-13T11:56:34;11.60;;;3.07;;
18176;SDS011;9213;50.858;3.964;2023-01-13T11:59:39;11.87;;;2.77;;
18176;SDS011;9213;50.858;3.964;2023-01-13T12:02:19;14.57;;;2.60;;
18176;SDS011;9213;50.858;3.964;2023-01-13T12:04:58;13.17;;;2.80;;
18176;SDS011;9213;50.858;3.964;2023-01-13T12:07:35;15.23;;;3.07;;
18176;SDS011;9213;50.858;3.964;2023-01-13T12:10:11;12.47;;;2.93;;
18176;SDS011;9213;50.858;3.964;2023-01-13T12:12:47;16.53;;;3.30;;
18176;SDS011;9213;50.858;3.964;2023-01-13T12:15:27;18.93;;;3.70;;
18176;SDS011;9213;50.858;3.964;2023-01-13T12:18:31;15.67;;;2.53;;
18176;SDS011;9213;50.858;3.964;2023-01-13T12:21:09;15.73;;;3.50;;
18176;SDS011;9213;50.858;3.964;2023-01-13T12:23:44;17.83;;;2.63;;
18176;SDS011;9213;50.858;3.964;2023-01-13T12:26:18;16.80;;;3.23;;
18176;SDS011;9213;50.858;3.964;2023-01-13T12:28:45;8.93;;;2.60;;
18176;SDS011;9213;50.858;3.964;2023-01-13T12:31:16;13.90;;;2.60;;
18176;SDS011;9213;50.858;3.964;2023-01-13T12:33:47;14.27;;;2.60;;
18176;SDS011;9213;50.858;3.964;2023-01-13T12:36:24;19.77;;;4.67;;
18176;SDS011;9213;50.858;3.964;2023-01-13T12:38:56;10.93;;;2.40;;
18176;SDS011;9213;50.858;3.964;2023-01-13T12:41:32;15.63;;;3.00;;
18176;SDS011;9213;50.858;3.964;2023-01-13T12:44:25;16.50;;;3.20;;
18176;SDS011;9213;50.858;3.964;2023-01-13T12:46:52;13.07;;;3.07;;
18176;SDS011;9213;50.858;3.964;2023-01-13T12:49:25;16.30;;;3.17;;
18176;SDS011;9213;50.858;3.964;2023-01-13T12:57:40;16.40;;;2.90;;
18176;SDS011;9213;50.858;3.964;2023-01-13T13:00:36;18.20;;;3.20;;
18176;SDS011;9213;50.858;3.964;2023-01-13T13:03:30;17.50;;;3.30;;
18176;SDS011;9213;50.858;3.964;2023-01-13T13:06:05;10.87;;;2.53;;
18176;SDS011;9213;50.858;3.964;2023-01-13T13:08:41;17.73;;;3.13;;
18176;SDS011;9213;50.858;3.964;2023-01-13T13:11:34;15.17;;;3.33;;
18176;SDS011;9213;50.858;3.964;2023-01-13T13:23:36;9.83;;;2.77;;
18176;SDS011;9213;50.858;3.964;2023-01-13T13:26:16;13.77;;;2.60;;
18176;SDS011;9213;50.858;3.964;2023-01-13T13:28:53;11.97;;;3.17;;
18176;SDS011;9213;50.858;3.964;2023-01-13T13:31:36;14.63;;;2.80;;
18176;SDS011;9213;50.858;3.964;2023-01-13T13:34:24;12.70;;;2.43;;
18176;SDS011;9213;50.858;3.964;2023-01-13T13:37:05;13.27;;;2.97;;
18176;SDS011;9213;50.858;3.964;2023-01-13T13:39:39;10.77;;;2.70;;
18176;SDS011;9213;50.858;3.964;2023-01-13T13:42:25;13.77;;;3.20;;
18176;SDS011;9213;50.858;3.964;2023-01-13T13:45:14;12.40;;;3.23;;
18176;SDS011;9213;50.858;3.964;2023-01-13T13:50:47;15.50;;;2.60;;
18176;SDS011;9213;50.858;3.964;2023-01-13T13:53:19;14.50;;;3.27;;
18176;SDS011;9213;50.858;3.964;2023-01-13T13:55:50;13.90;;;3.60;;
18176;SDS011;9213;50.858;3.964;2023-01-13T13:58:20;10.77;;;2.80;;
18176;SDS011;9213;50.858;3.964;2023-01-13T14:00:48;11.70;;;2.70;;
18176;SDS011;9213;50.858;3.964;2023-01-13T14:03:20;10.47;;;2.60;;
18176;SDS011;9213;50.858;3.964;2023-01-13T14:05:54;14.63;;;3.33;;
18176;SDS011;9213;50.858;3.964;2023-01-13T14:08:22;14.73;;;2.83;;
18176;SDS011;9213;50.858;3.964;2023-01-13T14:10:50;17.53;;;3.13;;
18176;SDS011;9213;50.858;3.964;2023-01-13T14:13:18;14.90;;;2.80;;
18176;SDS011;9213;50.858;3.964;2023-01-13T14:15:48;9.00;;;2.40;;
18176;SDS011;9213;50.858;3.964;2023-01-13T14:18:21;8.63;;;2.50;;
18176;SDS011;9213;50.858;3.964;2023-01-13T14:20:54;15.10;;;2.80;;
18176;SDS011;9213;50.858;3.964;2023-01-13T14:23:24;16.47;;;4.20;;
18176;SDS011;9213;50.858;3.964;2023-01-13T14:25:53;14.90;;;2.70;;
18176;SDS011;9213;50.858;3.964;2023-01-13T14:28:21;13.53;;;2.63;;
18176;SDS011;9213;50.858;3.964;2023-01-13T14:30:51;11.93;;;2.80;;
18176;SDS011;9213;50.858;3.964;2023-01-13T14:33:21;14.67;;;2.50;;
18176;SDS011;9213;50.858;3.964;2023-01-13T14:38:49;10.53;;;2.43;;
18176;SDS011;9213;50.858;3.964;2023-01-13T14:42:10;11.63;;;2.63;;
18176;SDS011;9213;50.858;3.964;2023-01-13T14:44:38;15.17;;;2.90;;
18176;SDS011;9213;50.858;3.964;2023-01-13T14:47:16;15.87;;;2.70;;
18176;SDS011;9213;50.858;3.964;2023-01-13T14:49:52;13.17;;;2.77;;
18176;SDS011;9213;50.858;3.964;2023-01-13T14:52:26;14.93;;;3.33;;
18176;SDS011;9213;50.858;3.964;2023-01-13T14:57:51;15.50;;;6.27;;
18176;SDS011;9213;50.858;3.964;2023-01-13T15:00:19;16.03;;;4.57;;
18176;SDS011;9213;50.858;3.964;2023-01-13T15:02:48;13.83;;;4.20;;
18176;SDS011;9213;50.858;3.964;2023-01-13T15:05:36;13.77;;;5.30;;
18176;SDS011;9213;50.858;3.964;2023-01-13T15:11:05;14.00;;;4.60;;
18176;SDS011;9213;50.858;3.964;2023-01-13T15:13:40;14.23;;;5.00;;
18176;SDS011;9213;50.858;3.964;2023-01-13T15:16:13;18.53;;;4.03;;
18176;SDS011;9213;50.858;3.964;2023-01-13T15:18:42;12.70;;;3.10;;
18176;SDS011;9213;50.858;3.964;2023-01-13T15:21:09;12.43;;;3.13;;
18176;SDS011;9213;50.858;3.964;2023-01-13T15:23:38;10.63;;;3.13;;
18176;SDS011;9213;50.858;3.964;2023-01-13T15:26:12;10.57;;;2.87;;
18176;SDS011;9213;50.858;3.964;2023-01-13T15:28:43;9.00;;;2.63;;
18176;SDS011;9213;50.858;3.964;2023-01-13T15:31:11;10.27;;;2.70;;
18176;SDS011;9213;50.858;3.964;2023-01-13T15:33:38;10.27;;;3.17;;
18176;SDS011;9213;50.858;3.964;2023-01-13T15:36:08;14.47;;;2.80;;
18176;SDS011;9213;50.858;3.964;2023-01-13T15:38:48;14.40;;;2.93;;
18176;SDS011;9213;50.858;3.964;2023-01-13T15:41:15;13.27;;;2.67;;
18176;SDS011;9213;50.858;3.964;2023-01-13T15:44:02;12.37;;;2.40;;
18176;SDS011;9213;50.858;3.964;2023-01-13T15:46:47;13.77;;;2.83;;
18176;SDS011;9213;50.858;3.964;2023-01-13T15:49:16;17.37;;;2.57;;